GLA weather

Glasgow International Airport
Glasgow, Scotland, United Kingdom

Public forecast

Using degrees Celsius for public forecast. Weather courtesy of forecast.io.

METAR (pilot weather report)

Retrieved 2019/04/22 14:20 UTC (0 seconds ago):

EGPF 221420Z AUTO 13012KT 9999 NCD 23/03 Q1004

TAF (pilot weather forecast)

Retrieved 2019/04/22 12:00 UTC (2 hours ago):

TAF EGPF 221101Z 2212/2312 08009KT CAVOK TEMPO 2212/2218 14010KT